Time;durP1;ratioP1;P1;durP2;ratioP2;P2;SDS_P1;SDS_P2;PMS_P1;PMS_P2;Temp;Humidity;BMP_temperature;BMP_pressure;BME280_temperature;BME280_humidity;BME280_pressure;Samples;Min_cycle;Max_cycle;Signal;HPM_P1;HPM_P2
2021/01/24 00:02:07;;;;;;;20.63;14.07;;;1.40;99.90;;;-0.55;100.00;98404.63;4986766;28;100491;-65
2021/01/24 00:04:33;;;;;;;18.50;13.33;;;1.40;99.90;;;-0.51;100.00;98403.41;4987254;28;100296;-65
2021/01/24 00:07:00;;;;;;;18.77;12.87;;;1.50;99.90;;;-0.56;100.00;98409.06;4987516;28;100147;-65
2021/01/24 00:09:27;;;;;;;17.43;12.53;;;1.60;99.90;;;-0.55;100.00;98404.63;4986024;28;101469;-64
2021/01/24 00:11:53;;;;;;;18.70;11.30;;;0.60;99.90;;;-0.54;100.00;98407.13;4986037;28;100653;-65
2021/01/24 00:14:20;;;;;;;18.37;12.33;;;1.60;99.90;;;-0.57;100.00;98411.81;4987486;28;100198;-65
2021/01/24 00:16:46;;;;;;;18.83;11.87;;;1.50;99.90;;;-0.56;100.00;98414.31;4986572;28;100086;-64
2021/01/24 00:19:13;;;;;;;16.60;12.33;;;1.60;99.90;;;-0.49;100.00;98419.84;4984660;28;100602;-65
2021/01/24 00:21:39;;;;;;;18.43;13.63;;;1.50;99.90;;;-0.50;100.00;98421.66;4985905;28;101246;-64
2021/01/24 00:24:06;;;;;;;17.80;11.63;;;1.70;99.90;;;-0.33;100.00;98421.97;4986667;28;100419;-65
2021/01/24 00:26:34;;;;;;;19.27;13.10;;;1.60;99.90;;;-0.43;100.00;98422.78;4984770;27;100140;-65
2021/01/24 00:29:00;;;;;;;20.23;12.80;;;1.60;99.90;;;-0.49;100.00;98418.06;4985787;28;101381;-65
2021/01/24 00:31:27;;;;;;;20.63;14.83;;;1.80;99.90;;;-0.46;100.00;98420.41;4986148;28;100773;-64
2021/01/24 00:34:00;;;;;;;19.87;12.50;;;1.80;99.90;;;-0.46;100.00;98412.53;4985681;28;100060;-65
2021/01/24 00:36:30;;;;;;;20.97;14.10;;;1.70;99.90;;;-0.44;100.00;98407.97;4985731;28;100313;-65
2021/01/24 00:38:56;;;;;;;19.83;13.30;;;1.90;99.90;;;-0.39;100.00;98405.78;4965903;28;100158;-65
2021/01/24 00:41:22;;;;;;;20.90;14.13;;;1.90;99.90;;;-0.41;100.00;98404.25;4978906;28;101252;-65
2021/01/24 00:43:50;;;;;;;22.70;15.27;;;1.90;99.90;;;-0.51;100.00;98408.66;4985975;28;100070;-66
2021/01/24 00:46:16;;;;;;;20.90;14.23;;;1.90;99.90;;;-0.47;100.00;98404.78;4993050;28;100288;-66
2021/01/24 00:48:43;;;;;;;22.83;13.87;;;2.00;99.90;;;-0.43;100.00;98416.69;4986137;28;100627;-66
2021/01/24 00:51:09;;;;;;;21.67;14.10;;;2.00;99.90;;;-0.50;100.00;98407.72;4985052;28;101088;-66
2021/01/24 00:53:36;;;;;;;20.20;14.70;;;1.80;99.90;;;-0.49;100.00;98404.09;4982989;28;100015;-67
2021/01/24 00:56:03;;;;;;;21.13;13.53;;;2.00;99.90;;;-0.50;100.00;98403.28;4985719;28;100111;-66
2021/01/24 00:58:30;;;;;;;22.80;15.07;;;1.90;99.90;;;-0.51;100.00;98403.41;4984875;28;101770;-65
2021/01/24 01:00:57;;;;;;;25.00;15.43;;;1.90;99.90;;;-0.53;100.00;98403.53;4985610;28;100733;-66
2021/01/24 01:03:23;;;;;;;20.20;14.83;;;1.90;99.90;;;-0.50;100.00;98397.19;4986468;28;101402;-66
2021/01/24 01:05:50;;;;;;;23.97;15.10;;;1.90;99.90;;;-0.60;100.00;98404.19;4985767;28;100650;-65
2021/01/24 01:08:16;;;;;;;23.50;14.30;;;1.90;99.90;;;-0.61;100.00;98403.38;4984790;28;100564;-66
2021/01/24 01:11:09;;;;;;;28.57;15.43;;;1.80;99.90;;;-0.62;100.00;98401.72;4985213;28;100083;-66
2021/01/24 01:13:35;;;;;;;21.80;14.60;;;1.70;99.90;;;-0.64;100.00;98403.66;4986072;28;100083;-66
2021/01/24 01:16:03;;;;;;;20.57;13.97;;;1.70;99.90;;;-0.60;100.00;98404.19;4985825;28;100165;-67
2021/01/24 01:18:30;;;;;;;22.70;14.50;;;1.70;99.90;;;-0.65;100.00;98398.53;4985305;28;101294;-67
2021/01/24 01:20:57;;;;;;;22.70;14.60;;;1.70;99.90;;;-0.65;100.00;98403.78;4984525;28;101478;-67
2021/01/24 01:23:23;;;;;;;25.67;16.07;;;1.70;99.90;;;-0.60;100.00;98398.94;4985378;28;100145;-68
2021/01/24 01:25:51;;;;;;;23.33;15.50;;;1.70;99.90;;;-0.65;100.00;98393.28;4985202;28;101445;-67
2021/01/24 01:28:18;;;;;;;36.13;15.23;;;1.70;99.90;;;-0.68;100.00;98393.53;4984786;28;101588;-66
2021/01/24 01:30:44;;;;;;;22.17;14.20;;;1.70;99.90;;;-0.66;100.00;98391.63;4984694;28;100981;-67
2021/01/24 01:33:11;;;;;;;24.43;14.40;;;1.60;99.90;;;-0.67;100.00;98387.31;4984611;28;100602;-68
2021/01/24 01:35:45;;;;;;;21.63;14.63;;;2.30;99.90;;;-0.71;100.00;98384.13;4984951;28;100213;-68
2021/01/24 01:38:11;;;;;;;22.53;14.40;;;1.60;99.90;;;-0.75;100.00;98386.22;4983293;27;101460;-69
2021/01/24 01:40:40;;;;;;;20.20;13.90;;;1.70;99.90;;;-0.76;100.00;98388.97;4984606;28;100568;-67
2021/01/24 01:43:07;;;;;;;24.73;14.27;;;1.60;99.90;;;-0.77;100.00;98384.66;4984690;28;100014;-67
2021/01/24 01:45:33;;;;;;;21.27;13.93;;;1.50;99.90;;;-0.75;100.00;98388.84;4984631;28;99997;-68
2021/01/24 01:48:00;;;;;;;27.57;13.60;;;1.70;99.90;;;-0.75;100.00;98382.75;4973237;28;101509;-68
2021/01/24 01:50:27;;;;;;;20.10;13.33;;;1.50;99.90;;;-0.76;100.00;98375.84;4965823;28;100706;-67
2021/01/24 01:52:54;;;;;;;21.50;12.17;;;1.50;99.90;;;-0.77;100.00;98372.38;4976270;28;100404;-67
2021/01/24 01:55:20;;;;;;;21.33;12.90;;;2.20;99.90;;;-0.78;100.00;98372.50;4985636;28;100199;-68
2021/01/24 01:57:47;;;;;;;20.03;13.17;;;1.60;99.90;;;-0.81;100.00;98370.13;4983396;28;101274;-69
2021/01/24 02:00:14;;;;;;;19.00;12.47;;;1.50;99.90;;;-0.78;100.00;98369.88;4984337;28;100304;-68
2021/01/24 02:02:55;;;;;;;19.37;12.97;;;1.50;99.90;;;-0.80;100.00;98364.75;4985188;28;100194;-69
2021/01/24 02:05:31;;;;;;;17.27;11.77;;;1.60;99.90;;;-0.81;100.00;98365.72;4983237;28;100276;-69
2021/01/24 02:08:05;;;;;;;19.33;12.37;;;1.50;99.90;;;-0.78;100.00;98362.00;4984947;28;100808;-68
2021/01/24 02:10:37;;;;;;;18.93;12.53;;;1.50;99.90;;;-0.80;100.00;98366.53;4984252;28;100832;-67
2021/01/24 02:13:28;;;;;;;17.30;12.10;;;1.40;99.90;;;-0.81;100.00;98352.59;4984110;28;100208;-68
2021/01/24 02:15:59;;;;;;;20.00;12.17;;;1.40;99.90;;;-0.79;100.00;98353.28;4984592;28;100179;-68
2021/01/24 02:18:26;;;;;;;19.77;11.93;;;1.00;99.90;;;-0.81;100.00;98362.25;4983523;28;101328;-67
2021/01/24 02:21:04;;;;;;;23.77;13.37;;;1.40;99.90;;;-0.77;100.00;98366.28;4984498;28;99939;-67
2021/01/24 02:23:33;;;;;;;20.97;12.43;;;1.40;99.90;;;-0.80;100.00;98359.50;4983661;28;100074;-67
2021/01/24 02:26:08;;;;;;;29.27;12.50;;;1.40;99.90;;;-0.79;100.00;98368.22;4984078;28;100492;-67
2021/01/24 02:28:53;;;;;;;18.47;12.30;;;1.20;99.90;;;-0.77;100.00;98358.41;4983239;28;101562;-66
2021/01/24 02:31:24;;;;;;;19.20;11.90;;;1.40;99.90;;;-0.78;100.00;98357.56;4983792;28;100515;-66
2021/01/24 02:33:52;;;;;;;19.27;12.03;;;1.40;99.90;;;-0.69;100.00;98355.09;4984015;28;100281;-67
2021/01/24 02:36:21;;;;;;;22.10;12.67;;;1.30;99.90;;;-0.79;100.00;98358.53;4983858;28;100226;-70
2021/01/24 02:38:47;;;;;;;19.83;12.23;;;1.40;99.90;;;-0.79;100.00;98353.28;4984300;28;101095;-67
2021/01/24 02:41:16;;;;;;;23.63;12.90;;;1.30;99.90;;;-0.80;100.00;98354.25;4984485;28;100764;-67
2021/01/24 02:43:45;;;;;;;21.70;13.10;;;1.50;99.90;;;-0.80;100.00;98359.50;4984523;28;100089;-67
2021/01/24 02:46:12;;;;;;;26.33;13.87;;;1.50;99.90;;;-0.81;100.00;98357.00;4985092;28;100180;-67
2021/01/24 02:48:42;;;;;;;20.67;12.80;;;1.40;99.90;;;-0.79;100.00;98349.84;4983960;28;102916;-67
2021/01/24 02:51:09;;;;;;;20.50;13.53;;;1.40;99.90;;;-0.80;100.00;98350.78;4986753;28;101431;-67
2021/01/24 02:53:37;;;;;;;21.40;13.73;;;1.40;99.90;;;-0.81;100.00;98355.22;4987813;28;100478;-66
2021/01/24 02:56:05;;;;;;;21.30;12.87;;;1.30;99.90;;;-0.78;100.00;98354.13;4987943;28;100005;-66
2021/01/24 02:58:32;;;;;;;21.77;12.63;;;1.40;99.90;;;-0.79;100.00;98357.72;4987362;28;101195;-66
2021/01/24 03:00:58;;;;;;;22.03;13.37;;;1.30;99.90;;;-0.80;100.00;98356.88;4986951;28;101285;-68
2021/01/24 03:03:26;;;;;;;23.17;14.00;;;1.30;99.90;;;-0.79;100.00;98355.09;4987605;28;100247;-68
2021/01/24 03:05:53;;;;;;;25.10;14.47;;;1.30;99.90;;;-0.74;100.00;98348.44;4988348;28;99911;-69
2021/01/24 03:08:20;;;;;;;22.23;13.43;;;1.30;99.90;;;-0.79;100.00;98353.28;4987330;28;101188;-70
2021/01/24 03:10:47;;;;;;;22.73;13.40;;;1.30;99.90;;;-0.79;100.00;98348.03;4986864;28;101439;-66
2021/01/24 03:13:20;;;;;;;20.83;12.97;;;1.30;99.90;;;-0.79;100.00;98347.22;4986962;28;100207;-70
2021/01/24 03:15:48;;;;;;;21.57;13.87;;;1.40;99.90;;;-0.74;100.00;98342.38;4987654;28;100149;-68
2021/01/24 03:18:19;;;;;;;19.50;13.40;;;1.30;99.90;;;-0.78;100.00;98341.81;4986959;28;100912;-66
2021/01/24 03:20:49;;;;;;;22.07;13.97;;;1.30;99.90;;;-0.82;100.00;98329.91;4987087;28;101110;-67
2021/01/24 03:23:17;;;;;;;28.13;15.33;;;1.20;99.90;;;-0.81;100.00;98336.84;4987320;28;100016;-69
2021/01/24 03:25:44;;;;;;;20.73;13.23;;;1.40;99.90;;;-0.82;100.00;98339.59;4986865;28;99983;-70
2021/01/24 03:28:11;;;;;;;20.40;12.77;;;1.20;99.90;;;-0.83;100.00;98333.50;4986967;28;100604;-67
2021/01/24 03:30:37;;;;;;;22.50;13.63;;;1.20;99.90;;;-0.84;100.00;98331.84;4987415;28;100560;-69
2021/01/24 03:33:05;;;;;;;20.77;13.07;;;1.30;99.90;;;-0.83;100.00;98332.66;4986869;28;100362;-68
2021/01/24 03:35:32;;;;;;;20.00;13.73;;;1.30;99.90;;;-0.83;100.00;98332.66;4987144;28;100089;-68
2021/01/24 03:37:58;;;;;;;22.50;13.73;;;1.40;99.90;;;-0.85;100.00;98331.97;4986644;28;100659;-70
2021/01/24 03:40:26;;;;;;;23.80;13.00;;;1.30;99.90;;;-0.83;100.00;98324.78;4987057;28;100591;-68
2021/01/24 03:42:52;;;;;;;24.10;12.67;;;1.30;99.90;;;-0.82;100.00;98322.03;4987121;28;100223;-68
2021/01/24 03:45:19;;;;;;;21.13;11.83;;;1.30;99.90;;;-0.84;100.00;98312.63;4988007;28;100149;-68
2021/01/24 03:47:45;;;;;;;20.90;12.57;;;1.30;99.90;;;-0.85;100.00;98300.47;4986288;28;101375;-69
2021/01/24 03:50:13;;;;;;;23.00;12.50;;;1.20;99.90;;;-0.85;100.00;98293.41;4987210;28;99915;-68
2021/01/24 03:52:39;;;;;;;19.33;12.23;;;1.30;99.90;;;-0.84;100.00;98286.38;4986549;28;100125;-68
2021/01/24 03:55:07;;;;;;;18.57;12.03;;;1.20;99.90;;;-0.86;100.00;98296.19;4987305;28;100770;-67
2021/01/24 03:57:35;;;;;;;20.07;12.77;;;1.10;99.90;;;-0.86;100.00;98294.38;4986836;28;100850;-68
2021/01/24 04:00:03;;;;;;;18.90;12.33;;;1.00;99.90;;;-0.87;100.00;98292.75;4984074;28;101829;-68
2021/01/24 04:02:39;;;;;;;21.13;13.90;;;1.50;99.90;;;-0.88;100.00;98293.72;4982278;28;100284;-67
2021/01/24 04:05:07;;;;;;;20.83;13.70;;;1.10;99.90;;;-0.86;100.00;98297.00;4986162;28;100033;-67
2021/01/24 04:07:33;;;;;;;21.77;12.67;;;0.30;99.90;;;-0.87;100.00;98282.25;4987142;28;100930;-68
2021/01/24 04:10:00;;;;;;;21.17;13.30;;;1.00;99.90;;;-0.87;100.00;98277.00;4986292;28;100639;-68
2021/01/24 04:12:26;;;;;;;19.77;13.10;;;1.10;99.90;;;-0.89;100.00;98272.84;4985819;28;100308;-68
2021/01/24 04:14:53;;;;;;;21.97;12.40;;;1.10;99.90;;;-0.89;100.00;98267.59;4986697;28;100031;-67
2021/01/24 04:17:20;;;;;;;22.67;13.30;;;1.10;99.90;;;-0.89;100.00;98278.09;4986101;28;101073;-67
2021/01/24 04:19:46;;;;;;;21.83;13.57;;;1.10;99.90;;;-0.88;100.00;98290.25;4994579;28;101249;-66
2021/01/24 04:22:13;;;;;;;23.20;13.07;;;1.00;99.90;;;-0.89;100.00;98289.44;4984657;28;100430;-67
2021/01/24 04:24:39;;;;;;;21.60;13.07;;;1.00;99.90;;;-0.89;100.00;98299.94;4986957;28;100406;-66
2021/01/24 04:27:05;;;;;;;19.03;11.70;;;1.10;99.90;;;-0.87;100.00;98308.50;4985569;28;100692;-67
2021/01/24 04:29:32;;;;;;;17.57;11.63;;;1.10;99.90;;;-0.87;100.00;98305.88;4985761;28;101724;-65
2021/01/24 04:31:59;;;;;;;19.83;12.00;;;1.10;99.90;;;-0.86;100.00;98298.81;4985951;28;99861;-67
2021/01/24 04:34:25;;;;;;;18.63;12.10;;;1.10;99.90;;;-0.83;100.00;98288.03;4986574;28;100006;-67
2021/01/24 04:36:52;;;;;;;21.73;13.83;;;1.10;99.90;;;-0.85;100.00;98285.53;4985635;28;101355;-67
2021/01/24 04:39:18;;;;;;;22.77;13.27;;;1.20;99.90;;;-0.85;100.00;98289.97;4986411;28;100684;-67
2021/01/24 04:41:47;;;;;;;18.17;11.80;;;1.10;99.90;;;-0.85;100.00;98284.72;4986286;28;100353;-68
2021/01/24 04:44:16;;;;;;;17.00;10.70;;;1.10;99.90;;;-0.86;100.00;98275.16;4986748;28;100141;-66
2021/01/24 04:46:43;;;;;;;16.03;10.50;;;1.10;99.90;;;-0.85;100.00;98274.22;4986266;28;101202;-67
2021/01/24 04:49:11;;;;;;;17.93;11.03;;;1.10;99.90;;;-0.83;100.00;98270.50;4985566;28;100460;-65
2021/01/24 04:51:39;;;;;;;17.73;11.23;;;1.20;99.90;;;-0.85;100.00;98271.59;4985465;28;100443;-67
2021/01/24 04:54:06;;;;;;;17.87;11.17;;;1.10;99.90;;;-0.88;100.00;98279.75;4986267;28;100017;-67
2021/01/24 04:56:37;;;;;;;17.73;11.17;;;1.10;99.90;;;-0.86;100.00;98280.41;4985624;28;101968;-68
2021/01/24 04:59:04;;;;;;;15.53;9.57;;;1.10;99.90;;;-0.89;100.00;98276.28;4967061;28;100640;-67
2021/01/24 05:01:33;;;;;;;12.97;9.30;;;1.10;99.90;;;-0.87;100.00;98276.16;4986021;28;100093;-67
2021/01/24 05:03:59;;;;;;;15.63;9.97;;;1.00;99.90;;;-0.87;100.00;98276.16;4986585;28;99852;-67
2021/01/24 05:06:27;;;;;;;14.67;7.93;;;1.00;99.90;;;-0.90;100.00;98269.38;4985483;28;101595;-67
2021/01/24 05:08:59;;;;;;;13.67;8.90;;;1.10;99.90;;;-0.87;100.00;98273.53;4985533;28;100591;-67
2021/01/24 05:11:26;;;;;;;13.67;8.50;;;1.90;99.90;;;-0.89;100.00;98273.66;4985055;28;100026;-66
2021/01/24 05:13:52;;;;;;;14.50;9.10;;;1.00;99.90;;;-0.89;100.00;98272.84;4984843;27;100165;-67
2021/01/24 05:16:22;;;;;;;11.50;8.40;;;1.10;99.90;;;-0.92;100.00;98273.94;4984659;28;100883;-67
2021/01/24 05:18:59;;;;;;;13.17;8.93;;;1.10;99.90;;;-0.90;100.00;98273.81;4984958;28;100522;-67
2021/01/24 05:21:27;;;;;;;11.43;7.90;;;1.10;99.90;;;-0.93;100.00;98274.06;4985219;28;100113;-66
2021/01/24 05:23:55;;;;;;;12.47;8.73;;;1.00;99.90;;;-0.90;100.00;98268.56;4982919;28;101893;-67
2021/01/24 05:26:22;;;;;;;13.87;8.50;;;1.00;99.90;;;-0.90;100.00;98271.19;4984990;28;100822;-66
2021/01/24 05:28:48;;;;;;;12.77;8.60;;;0.90;99.90;;;-0.94;100.00;98267.97;4984582;28;101232;-67
2021/01/24 05:31:15;;;;;;;13.10;8.73;;;1.00;99.90;;;-0.93;100.00;98267.03;4985122;28;100147;-68
2021/01/24 05:33:46;;;;;;;12.47;8.83;;;1.00;99.90;;;-0.90;100.00;98268.56;4985948;28;100319;-67
2021/01/24 05:36:12;;;;;;;17.03;8.13;;;1.00;99.90;;;-0.91;100.00;98261.63;4984336;28;101786;-67
2021/01/24 05:38:40;;;;;;;12.83;8.23;;;1.00;99.90;;;-0.89;100.00;98264.97;4984426;28;100420;-67
2021/01/24 05:41:09;;;;;;;13.13;8.73;;;1.00;99.90;;;-0.88;100.00;98272.72;4984522;28;100553;-68
2021/01/24 05:43:40;;;;;;;13.90;9.40;;;1.00;99.90;;;-0.88;100.00;98267.47;4984644;28;99987;-67
2021/01/24 05:46:09;;;;;;;13.73;8.03;;;1.00;99.90;;;-0.89;100.00;98273.66;4984931;28;100765;-69
2021/01/24 05:48:37;;;;;;;11.83;7.60;;;1.00;99.90;;;-0.91;100.00;98269.50;4984654;28;100576;-66
2021/01/24 05:51:06;;;;;;;12.87;8.60;;;1.20;99.90;;;-0.89;100.00;98276.28;4984465;28;100180;-66
2021/01/24 05:53:37;;;;;;;13.03;7.93;;;1.10;99.90;;;-0.87;100.00;98278.78;4985436;28;100112;-66
2021/01/24 05:56:16;;;;;;;14.30;8.93;;;1.10;99.90;;;-0.90;100.00;98285.13;4984196;28;100242;-68
2021/01/24 05:58:42;;;;;;;13.60;8.80;;;1.00;99.90;;;-0.90;100.00;98284.31;4985685;28;100683;-67
2021/01/24 06:01:19;;;;;;;13.00;8.70;;;1.10;99.90;;;-0.85;100.00;98282.09;4984455;28;100115;-67
2021/01/24 06:03:47;;;;;;;13.33;8.80;;;1.00;99.90;;;-0.88;100.00;98291.09;4985332;28;100081;-67
2021/01/24 06:06:14;;;;;;;14.27;8.87;;;1.10;99.90;;;-0.87;100.00;98282.25;4984351;28;100921;-67
2021/01/24 06:08:40;;;;;;;11.90;8.83;;;1.10;99.90;;;-0.85;100.00;98280.28;4984926;28;100648;-67
2021/01/24 06:11:08;;;;;;;13.93;9.27;;;1.10;99.90;;;-0.85;100.00;98275.03;4984327;28;100561;-67
2021/01/24 06:13:37;;;;;;;15.03;10.23;;;1.20;99.90;;;-0.83;100.00;98278.38;4985351;28;100111;-67
2021/01/24 06:16:08;;;;;;;14.97;9.87;;;1.10;99.90;;;-0.84;100.00;98278.50;4983754;28;100979;-66
2021/01/24 06:18:42;;;;;;;18.90;10.43;;;1.20;99.90;;;-0.84;100.00;98275.88;4983861;28;101144;-66
2021/01/24 06:21:18;;;;;;;16.53;10.63;;;1.00;99.90;;;-0.88;100.00;98272.72;4984153;28;100196;-66
2021/01/24 06:23:53;;;;;;;17.03;10.57;;;1.20;99.90;;;-0.92;100.00;98266.06;4986323;27;100150;-65
2021/01/24 06:26:23;;;;;;;20.17;10.77;;;1.10;99.90;;;-0.97;100.00;98259.53;4987571;28;100825;-65
2021/01/24 06:28:51;;;;;;;16.50;10.10;;;1.10;99.90;;;-0.99;100.00;98267.53;4987392;28;100607;-65
2021/01/24 06:31:19;;;;;;;16.53;10.80;;;1.40;99.90;;;-0.98;100.00;98273.63;4987471;28;99994;-65
2021/01/24 06:33:51;;;;;;;17.93;12.20;;;0.80;99.90;;;-0.97;100.00;98270.03;4987776;28;100152;-64
2021/01/24 06:36:19;;;;;;;17.83;11.33;;;1.00;99.90;;;-0.97;100.00;98268.25;4988221;28;100657;-63
2021/01/24 06:38:54;;;;;;;16.10;10.67;;;0.70;99.90;;;-0.94;100.00;98264.53;4988034;28;100476;-64
2021/01/24 06:41:43;;;;;;;15.27;10.13;;;0.90;99.90;;;-0.93;100.00;98272.28;4987095;28;100093;-64
2021/01/24 06:44:39;;;;;;;17.60;11.37;;;0.70;99.90;;;-0.88;100.00;98269.25;4988573;28;100090;-65
2021/01/24 06:47:07;;;;;;;15.40;10.70;;;0.80;99.90;;;-0.89;100.00;98276.28;4986660;28;100550;-65
2021/01/24 06:49:42;;;;;;;17.63;10.83;;;0.70;99.90;;;-0.88;100.00;98272.72;4988315;28;100762;-66
2021/01/24 06:52:21;;;;;;;18.03;11.73;;;0.80;99.90;;;-0.86;100.00;98277.78;4987190;28;100277;-65
2021/01/24 06:54:48;;;;;;;17.50;11.40;;;0.70;99.90;;;-0.84;100.00;98273.25;4987438;28;100435;-65
2021/01/24 06:57:16;;;;;;;20.20;12.43;;;0.90;99.90;;;-0.81;100.00;98275.59;4986649;28;101600;-66
2021/01/24 06:59:43;;;;;;;17.83;12.47;;;0.90;99.90;;;-0.81;100.00;98281.69;4986684;28;101188;-66
2021/01/24 07:02:35;;;;;;;18.37;11.73;;;1.00;99.90;;;-0.77;100.00;98285.72;4986807;28;100082;-65
2021/01/24 07:05:12;;;;;;;19.47;12.70;;;1.00;99.90;;;-0.74;100.00;98279.34;4988038;28;100071;-65
2021/01/24 07:07:41;;;;;;;20.63;12.30;;;1.00;99.90;;;-0.77;100.00;98283.09;4987419;28;101046;-65
2021/01/24 07:10:41;;;;;;;19.70;11.73;;;1.30;99.90;;;-0.75;100.00;98277.69;4986496;28;101233;-65
2021/01/24 07:13:36;;;;;;;20.27;12.70;;;1.10;99.90;;;-0.75;100.00;98281.16;4981098;28;101548;-65
2021/01/24 07:16:06;;;;;;;21.43;13.33;;;1.20;99.90;;;-0.75;100.00;98280.34;4987605;28;99908;-65
2021/01/24 07:18:41;;;;;;;21.33;14.27;;;1.20;99.90;;;-0.72;100.00;98282.66;4987070;28;101030;-63
2021/01/24 07:21:09;;;;;;;17.97;12.63;;;1.20;99.90;;;-0.75;100.00;98286.41;4976251;28;100917;-65
2021/01/24 07:23:37;;;;;;;21.47;14.17;;;1.20;99.90;;;-0.72;100.00;98285.28;4985097;28;99958;-65
2021/01/24 07:26:04;;;;;;;20.40;13.33;;;1.20;99.90;;;-0.70;100.00;98293.88;4984633;28;100177;-65
2021/01/24 07:28:31;;;;;;;20.77;13.03;;;1.20;99.90;;;-0.70;100.00;98288.63;4983927;28;102002;-65
2021/01/24 07:31:02;;;;;;;20.07;13.33;;;1.20;99.90;;;-0.67;100.00;98292.78;4984155;28;100533;-64
2021/01/24 07:33:30;;;;;;;21.47;14.67;;;1.20;99.90;;;-0.69;100.00;98297.31;4984344;28;100064;-65
2021/01/24 07:35:59;;;;;;;19.57;14.03;;;1.30;99.90;;;-0.70;100.00;98296.50;4984800;27;100110;-64
2021/01/24 07:38:26;;;;;;;19.73;14.47;;;1.30;99.90;;;-0.70;100.00;98293.88;4979287;28;100582;-64
2021/01/24 07:40:57;;;;;;;18.90;13.33;;;1.30;99.90;;;-0.65;100.00;98298.72;4984192;28;100436;-63
2021/01/24 07:43:25;;;;;;;22.97;15.83;;;1.40;99.90;;;-0.66;100.00;98300.53;4984495;28;100309;-64
2021/01/24 07:45:52;;;;;;;23.17;15.53;;;1.40;99.90;;;-0.62;100.00;98301.91;4984245;28;99985;-65
2021/01/24 07:48:46;;;;;;;21.90;15.03;;;1.30;99.90;;;-0.60;100.00;98296.50;4984264;28;101934;-67
2021/01/24 07:51:12;;;;;;;23.23;14.87;;;1.40;99.90;;;-0.59;100.00;98296.38;4989846;28;100735;-66
2021/01/24 07:53:39;;;;;;;21.03;14.57;;;1.40;99.90;;;-0.64;100.00;98301.22;4991683;28;99939;-66
2021/01/24 07:56:06;;;;;;;25.97;15.77;;;1.40;99.90;;;-0.54;100.00;98295.97;4984715;28;100204;-66
2021/01/24 07:58:33;;;;;;;23.93;15.73;;;1.40;99.90;;;-0.57;100.00;98299.69;4984454;28;101177;-66
2021/01/24 08:00:59;;;;;;;22.63;15.23;;;1.50;99.90;;;-0.58;100.00;98299.81;4982019;28;102831;-66
2021/01/24 08:03:26;;;;;;;24.50;17.13;;;1.50;99.90;;;-0.56;100.00;98301.34;4983913;28;100087;-65
2021/01/24 08:05:53;;;;;;;24.10;17.30;;;1.60;99.90;;;-0.53;100.00;98298.47;4984626;28;100357;-65
2021/01/24 08:08:20;;;;;;;25.30;17.17;;;1.60;99.90;;;-0.47;100.00;98294.44;4983713;28;100967;-67
2021/01/24 08:10:47;;;;;;;25.07;16.00;;;1.60;99.90;;;-0.50;100.00;98292.94;4983573;28;103403;-65
2021/01/24 08:13:14;;;;;;;22.60;16.20;;;1.60;99.90;;;-0.53;100.00;98293.22;4983511;28;100426;-66
2021/01/24 08:15:40;;;;;;;23.50;16.20;;;1.70;99.90;;;-0.50;100.00;98294.75;4983241;28;100070;-65
2021/01/24 08:18:07;;;;;;;29.13;19.93;;;1.60;99.90;;;-0.50;100.00;98300.81;4982884;28;100951;-65
2021/01/24 08:20:33;;;;;;;36.10;24.37;;;1.80;99.90;;;-0.53;100.00;98290.59;4983267;28;100730;-65
2021/01/24 08:23:01;;;;;;;25.87;19.37;;;1.50;99.90;;;-0.53;100.00;98293.22;4983058;28;99871;-65
2021/01/24 08:25:28;;;;;;;30.30;22.80;;;1.60;99.90;;;-0.53;100.00;98298.47;4982238;28;100283;-66
2021/01/24 08:27:55;;;;;;;31.47;23.27;;;1.60;99.90;;;-0.49;100.00;98291.13;4982064;28;101645;-67
2021/01/24 08:30:22;;;;;;;26.80;19.67;;;1.70;99.90;;;-0.50;100.00;98294.75;4981808;28;100442;-68
2021/01/24 08:32:48;;;;;;;31.20;22.03;;;1.70;99.90;;;-0.44;100.00;98294.16;4982254;28;99877;-67
2021/01/24 08:35:15;;;;;;;23.37;17.13;;;1.60;99.90;;;-0.52;100.00;98299.28;4982552;28;100117;-67
2021/01/24 08:37:42;;;;;;;28.30;18.93;;;1.60;99.90;;;-0.48;100.00;98305.91;4981672;28;101278;-68
2021/01/24 08:40:11;;;;;;;32.23;21.77;;;1.50;99.90;;;-0.53;100.00;98302.88;4982259;28;100557;-69
2021/01/24 08:42:46;;;;;;;35.97;25.77;;;1.60;99.90;;;-0.47;100.00;98304.94;4983382;28;100525;-68
2021/01/24 08:45:19;;;;;;;28.57;19.40;;;1.90;99.90;;;-0.42;100.00;98306.22;4980906;28;100208;-68
2021/01/24 08:47:53;;;;;;;29.23;19.90;;;1.60;99.90;;;-0.40;100.00;98306.06;4982143;28;100851;-68
2021/01/24 08:50:20;;;;;;;23.67;17.43;;;1.50;99.90;;;-0.42;100.00;98300.13;4966821;28;100652;-68
2021/01/24 08:52:54;;;;;;;28.70;20.00;;;1.70;99.90;;;-0.36;100.00;98308.28;4982862;28;100058;-68
2021/01/24 08:55:21;;;;;;;34.70;24.57;;;1.70;99.90;;;-0.40;100.00;98309.53;4983006;28;100223;-67
2021/01/24 08:57:48;;;;;;;31.40;21.70;;;1.80;99.90;;;-0.44;100.00;98307.31;4979936;28;101006;-68
2021/01/24 09:00:16;;;;;;;62.77;41.07;;;2.90;99.90;;;-0.34;100.00;98312.56;4981217;28;101484;-69
2021/01/24 09:02:43;;;;;;;32.13;23.77;;;1.80;99.90;;;-0.38;100.00;98312.03;4980293;28;100132;-69
2021/01/24 09:05:13;;;;;;;61.20;40.57;;;1.60;99.90;;;-0.38;100.00;98310.22;4982014;28;100266;-69
2021/01/24 09:07:41;;;;;;;38.73;24.77;;;1.90;99.90;;;-0.43;100.00;98312.44;4982085;28;100526;-69
2021/01/24 09:10:19;;;;;;;39.40;27.83;;;1.80;99.90;;;-0.32;100.00;98308.84;4980404;27;101293;-68
2021/01/24 09:12:48;;;;;;;32.23;22.70;;;1.90;99.90;;;-0.27;100.00;98309.28;4981285;28;100427;-70
2021/01/24 09:15:15;;;;;;;29.07;20.57;;;1.80;99.90;;;-0.29;100.00;98311.19;4980351;28;100032;-69
2021/01/24 09:17:42;;;;;;;30.03;19.73;;;2.00;99.90;;;-0.31;100.00;98310.50;4986438;27;101005;-70
2021/01/24 09:20:10;;;;;;;28.00;18.70;;;2.90;99.90;;;-0.23;100.00;98308.00;4983097;28;100674;-68
2021/01/24 09:22:36;;;;;;;27.20;19.27;;;1.90;99.90;;;-0.25;100.00;98307.34;4982277;28;100122;-68
2021/01/24 09:25:04;;;;;;;28.03;18.20;;;2.00;99.90;;;-0.24;100.00;98305.50;4981470;28;100440;-69
2021/01/24 09:27:30;;;;;;;27.70;18.73;;;2.00;99.90;;;-0.17;100.00;98314.50;4984552;27;101415;-68
2021/01/24 09:29:58;;;;;;;26.10;18.73;;;2.00;99.90;;;-0.16;100.00;98313.56;4981389;28;101252;-68
2021/01/24 09:32:24;;;;;;;27.57;19.33;;;1.90;99.90;;;-0.08;100.00;98311.03;4981687;28;100373;-69
2021/01/24 09:34:50;;;;;;;26.93;19.63;;;2.00;99.90;;;-0.20;100.00;98309.53;4981532;28;100194;-69
2021/01/24 09:37:17;;;;;;;28.67;20.27;;;2.10;99.90;;;-0.20;100.00;98313.00;4982002;28;101061;-70
2021/01/24 09:39:43;;;;;;;27.23;18.60;;;2.00;99.90;;;-0.10;100.00;98308.56;4981359;28;100542;-70
2021/01/24 09:42:10;;;;;;;24.97;19.47;;;2.00;99.90;;;-0.15;100.00;98309.97;4981671;28;100243;-70
2021/01/24 09:44:36;;;;;;;24.27;16.90;;;2.00;99.90;;;-0.20;100.00;98310.34;4981327;28;100395;-69
2021/01/24 09:47:03;;;;;;;27.00;18.67;;;1.90;99.90;;;-0.11;100.00;98306.06;4981512;28;100667;-70
2021/01/24 09:49:30;;;;;;;25.63;17.63;;;2.00;99.90;;;-0.16;100.00;98309.13;4980896;28;101183;-70
2021/01/24 09:51:56;;;;;;;24.40;18.63;;;2.00;99.90;;;-0.14;100.00;98306.34;4981392;28;100143;-70
2021/01/24 09:54:23;;;;;;;27.33;18.87;;;2.20;99.90;;;-0.04;100.00;98307.19;4981939;28;100039;-70
2021/01/24 09:56:49;;;;;;;26.70;19.47;;;1.90;99.90;;;-0.08;100.00;98308.41;4979996;28;101623;-70
2021/01/24 09:59:15;;;;;;;24.23;17.37;;;1.90;99.90;;;-0.12;100.00;98310.47;4976486;28;101851;-70
2021/01/24 10:01:42;;;;;;;22.43;16.80;;;2.10;99.90;;;-0.03;100.00;98300.94;4979238;28;100499;-70
2021/01/24 10:04:10;;;;;;;22.30;16.80;;;2.00;99.90;;;-0.06;100.00;98311.75;4981617;28;100154;-70
2021/01/24 10:06:37;;;;;;;20.43;15.87;;;2.00;99.90;;;-0.14;100.00;98309.00;4982423;28;100764;-69
2021/01/24 10:09:05;;;;;;;19.90;13.83;;;2.00;99.90;;;-0.12;100.00;98305.22;4980989;28;101442;-68